createdAt,value
2023-01-31T00:01:53.185Z,4.70
2023-01-31T00:04:20.307Z,5.37
2023-01-31T00:06:48.779Z,5.80
2023-01-31T00:09:15.921Z,4.13
2023-01-31T00:11:43.050Z,5.93
2023-01-31T00:14:10.393Z,6.50
2023-01-31T00:16:37.513Z,5.27
2023-01-31T00:19:04.737Z,5.77
2023-01-31T00:21:32.123Z,5.37
2023-01-31T00:24:00.661Z,5.63
2023-01-31T00:26:28.591Z,4.83
2023-01-31T00:28:56.420Z,5.60
2023-01-31T00:31:24.321Z,4.73
2023-01-31T00:33:52.312Z,6.03
2023-01-31T00:36:20.487Z,7.40
2023-01-31T00:38:49.165Z,5.10
2023-01-31T00:41:21.040Z,5.67
2023-01-31T00:43:48.206Z,5.53
2023-01-31T00:46:15.401Z,5.47
2023-01-31T00:48:42.875Z,7.73
2023-01-31T00:51:10.021Z,5.97
2023-01-31T00:53:38.316Z,5.80
2023-01-31T00:56:06.901Z,4.80
2023-01-31T00:58:37.402Z,5.10
2023-01-31T01:01:08.784Z,4.57
2023-01-31T01:03:36.850Z,6.60
2023-01-31T01:06:04.901Z,6.17
2023-01-31T01:08:32.700Z,5.23
2023-01-31T01:11:04.984Z,5.77
2023-01-31T01:13:32.154Z,5.10
2023-01-31T01:16:04.007Z,4.47
2023-01-31T01:18:31.346Z,5.17
2023-01-31T01:21:05.020Z,4.40
2023-01-31T01:23:32.162Z,6.13
2023-01-31T01:25:59.268Z,4.87
2023-01-31T01:28:29.104Z,5.67
2023-01-31T01:30:57.100Z,4.93
2023-01-31T01:33:25.623Z,5.07
2023-01-31T01:35:52.723Z,4.97
2023-01-31T01:38:19.843Z,5.00
2023-01-31T01:40:46.970Z,4.50
2023-01-31T01:43:14.258Z,5.27
2023-01-31T01:45:41.817Z,4.70
2023-01-31T01:48:09.181Z,5.73
2023-01-31T01:50:41.020Z,5.70
2023-01-31T01:53:10.695Z,4.73
2023-01-31T01:55:38.892Z,5.67
2023-01-31T01:58:08.133Z,4.80
2023-01-31T02:00:36.300Z,3.77
2023-01-31T02:03:05.020Z,5.47
2023-01-31T02:05:33.818Z,4.90
2023-01-31T02:08:03.128Z,4.97
2023-01-31T02:10:32.179Z,6.33
2023-01-31T02:12:59.349Z,5.50
2023-01-31T02:15:29.412Z,5.70
2023-01-31T02:17:56.961Z,5.67
2023-01-31T02:20:55.553Z,5.30
2023-01-31T02:23:41.081Z,5.10
2023-01-31T02:26:26.132Z,4.97
2023-01-31T02:29:10.860Z,6.10
2023-01-31T02:31:50.750Z,4.20
2023-01-31T02:34:24.810Z,5.03
2023-01-31T02:37:00.545Z,5.67
2023-01-31T02:39:29.800Z,4.80
2023-01-31T02:41:58.007Z,4.63
2023-01-31T02:44:27.842Z,4.20
2023-01-31T02:46:57.809Z,6.00
2023-01-31T02:49:30.705Z,5.33
2023-01-31T02:51:58.287Z,5.77
2023-01-31T02:54:26.407Z,5.87
2023-01-31T02:56:54.108Z,5.17
2023-01-31T02:59:22.044Z,7.30
2023-01-31T03:01:51.773Z,6.40
2023-01-31T03:04:19.174Z,6.03
2023-01-31T03:07:00.456Z,5.97
2023-01-31T03:09:32.887Z,5.80
2023-01-31T03:12:03.809Z,5.57
2023-01-31T03:14:32.893Z,4.40
2023-01-31T03:17:02.778Z,5.40
2023-01-31T03:19:33.909Z,5.33
2023-01-31T03:22:06.359Z,5.17
2023-01-31T03:24:34.243Z,6.10
2023-01-31T03:27:02.061Z,6.27
2023-01-31T03:29:30.451Z,4.53
2023-01-31T03:31:59.664Z,4.70
2023-01-31T03:34:27.520Z,5.10
2023-01-31T03:36:57.934Z,5.10
2023-01-31T03:39:39.149Z,4.67
2023-01-31T03:42:09.515Z,5.00
2023-01-31T03:44:41.557Z,6.00
2023-01-31T03:47:11.881Z,5.20
2023-01-31T03:49:40.151Z,4.80
2023-01-31T03:52:08.763Z,4.90
2023-01-31T03:54:40.926Z,5.97
2023-01-31T03:57:12.227Z,5.97
2023-01-31T03:59:40.599Z,5.50
2023-01-31T04:02:10.928Z,5.93
2023-01-31T04:04:40.219Z,4.97
2023-01-31T04:07:07.397Z,6.93
2023-01-31T04:09:39.223Z,5.23
2023-01-31T04:12:06.828Z,6.40
2023-01-31T04:14:33.971Z,7.10
2023-01-31T04:17:01.108Z,5.60
2023-01-31T04:19:28.252Z,5.50
2023-01-31T04:21:55.368Z,6.07
2023-01-31T04:24:23.543Z,7.43
2023-01-31T04:26:52.021Z,6.67
2023-01-31T04:29:19.267Z,5.37
2023-01-31T04:31:46.539Z,5.40
2023-01-31T04:34:13.749Z,5.87
2023-01-31T04:36:40.891Z,4.97
2023-01-31T04:39:08.557Z,5.33
2023-01-31T04:41:35.846Z,4.43
2023-01-31T04:44:04.338Z,5.53
2023-01-31T04:46:32.022Z,6.93
2023-01-31T04:48:59.315Z,6.80
2023-01-31T04:51:26.447Z,5.07
2023-01-31T04:53:53.583Z,6.50
2023-01-31T04:56:20.717Z,6.47
2023-01-31T04:58:47.820Z,5.90
2023-01-31T05:01:16.417Z,6.70
2023-01-31T05:03:43.558Z,5.60
2023-01-31T05:06:10.828Z,6.43
2023-01-31T05:08:37.927Z,7.07
2023-01-31T05:11:05.474Z,6.97
2023-01-31T05:13:33.031Z,8.13
2023-01-31T05:16:00.253Z,9.00
2023-01-31T05:18:28.719Z,7.63
2023-01-31T05:20:55.898Z,8.97
2023-01-31T05:23:22.993Z,9.20
2023-01-31T05:25:50.640Z,10.13
2023-01-31T05:28:17.989Z,9.80
2023-01-31T05:30:45.495Z,8.80
2023-01-31T05:33:12.952Z,9.37
2023-01-31T05:35:41.475Z,9.60
2023-01-31T05:38:08.772Z,9.80
2023-01-31T05:40:35.966Z,9.57
2023-01-31T05:43:03.262Z,10.23
2023-01-31T05:45:30.729Z,8.87
2023-01-31T05:47:58.633Z,8.77
2023-01-31T05:50:25.996Z,8.40
2023-01-31T05:52:55.358Z,8.23
2023-01-31T05:55:23.069Z,8.70
2023-01-31T05:57:50.208Z,9.70
2023-01-31T06:00:17.639Z,9.70
2023-01-31T06:02:44.869Z,9.47
2023-01-31T06:05:12.712Z,9.97
2023-01-31T06:07:39.827Z,9.47
2023-01-31T06:10:09.678Z,9.40
2023-01-31T06:12:36.963Z,9.07
2023-01-31T06:15:04.312Z,9.40
2023-01-31T06:17:31.572Z,9.57
2023-01-31T06:19:59.196Z,10.27
2023-01-31T06:22:26.335Z,9.70
2023-01-31T06:24:53.474Z,8.47
2023-01-31T06:27:21.943Z,10.40
2023-01-31T06:29:49.030Z,9.97
2023-01-31T06:32:16.131Z,10.20
2023-01-31T06:34:43.269Z,8.77
2023-01-31T06:37:11.328Z,8.37
2023-01-31T06:39:38.561Z,9.67
2023-01-31T06:42:06.122Z,9.43
2023-01-31T06:44:34.598Z,8.90
2023-01-31T06:47:02.048Z,8.57
2023-01-31T06:49:29.394Z,8.37
2023-01-31T06:51:56.853Z,8.97
2023-01-31T06:54:24.134Z,8.27
2023-01-31T06:56:51.201Z,7.93
2023-01-31T06:59:18.322Z,8.13
2023-01-31T07:01:46.823Z,7.93
2023-01-31T07:04:14.019Z,7.70
2023-01-31T07:06:41.359Z,8.00
2023-01-31T07:09:08.576Z,7.67
2023-01-31T07:11:37.494Z,8.60
2023-01-31T07:14:04.652Z,6.83
2023-01-31T07:16:32.280Z,6.80
2023-01-31T07:19:00.830Z,8.07
2023-01-31T07:21:28.748Z,7.43
2023-01-31T07:23:55.892Z,7.60
2023-01-31T07:26:23.025Z,7.70
2023-01-31T07:28:50.410Z,6.97
2023-01-31T07:31:17.536Z,5.70
2023-01-31T07:33:44.739Z,5.97
2023-01-31T07:36:14.523Z,5.83
2023-01-31T07:38:41.657Z,6.27
2023-01-31T07:41:10.525Z,6.30
2023-01-31T07:43:37.667Z,6.13
2023-01-31T07:46:06.642Z,4.50
2023-01-31T07:48:34.155Z,5.20
2023-01-31T07:51:01.971Z,5.93
2023-01-31T07:53:31.936Z,5.47
2023-01-31T07:56:06.001Z,5.93
2023-01-31T07:58:34.688Z,5.63
2023-01-31T08:01:01.869Z,5.43
2023-01-31T08:03:29.843Z,4.47
2023-01-31T08:05:57.004Z,5.40
2023-01-31T08:08:24.155Z,5.10
2023-01-31T08:10:52.650Z,5.20
2023-01-31T08:13:19.796Z,5.30
2023-01-31T08:15:46.990Z,4.97
2023-01-31T08:18:14.148Z,4.93
2023-01-31T08:20:41.238Z,5.00
2023-01-31T08:23:08.360Z,4.70
2023-01-31T08:25:35.466Z,4.70
2023-01-31T08:28:04.088Z,4.30
2023-01-31T08:30:31.694Z,4.10
2023-01-31T08:32:58.930Z,4.33
2023-01-31T08:35:26.348Z,3.87
2023-01-31T08:38:00.858Z,4.90
2023-01-31T08:40:34.210Z,5.67
2023-01-31T08:43:01.535Z,3.80
2023-01-31T08:45:30.634Z,4.40
2023-01-31T08:47:58.315Z,4.57
2023-01-31T08:50:28.133Z,4.33
2023-01-31T08:52:55.694Z,3.93
2023-01-31T08:55:23.517Z,3.93
2023-01-31T08:57:59.485Z,4.10
2023-01-31T09:00:27.203Z,4.67
2023-01-31T09:02:56.326Z,5.00
2023-01-31T09:05:23.985Z,5.20
2023-01-31T09:07:51.180Z,4.50
2023-01-31T09:10:18.820Z,4.87
2023-01-31T09:12:46.176Z,4.77
2023-01-31T09:15:13.448Z,4.30
2023-01-31T09:17:40.901Z,4.03
2023-01-31T09:20:10.208Z,4.60
2023-01-31T09:22:37.500Z,4.70
2023-01-31T09:25:04.849Z,4.97
2023-01-31T09:27:32.250Z,4.60
2023-01-31T09:29:59.377Z,4.20
2023-01-31T09:32:26.503Z,4.40
2023-01-31T09:34:53.608Z,3.63
2023-01-31T09:37:22.128Z,4.60
2023-01-31T09:39:49.240Z,3.90
2023-01-31T09:42:19.339Z,4.70
2023-01-31T09:44:49.455Z,5.30
2023-01-31T09:47:19.385Z,5.50
2023-01-31T09:49:49.401Z,3.83
2023-01-31T09:52:16.548Z,5.00
2023-01-31T09:54:45.498Z,4.07
2023-01-31T09:57:17.346Z,5.37
2023-01-31T09:59:49.069Z,5.10
2023-01-31T10:02:23.742Z,5.00
2023-01-31T10:04:58.448Z,5.73
2023-01-31T10:07:28.252Z,4.50
2023-01-31T10:10:01.914Z,6.27
2023-01-31T10:12:31.641Z,4.60
2023-01-31T10:15:01.501Z,5.03
2023-01-31T10:17:29.734Z,5.43
2023-01-31T10:19:58.314Z,6.87
2023-01-31T10:22:29.259Z,4.43
2023-01-31T10:24:59.236Z,6.07
2023-01-31T10:27:33.990Z,4.70
2023-01-31T10:30:03.214Z,4.87
2023-01-31T10:32:34.173Z,5.00
2023-01-31T10:35:03.394Z,5.40
2023-01-31T10:37:33.261Z,5.90
2023-01-31T10:40:03.073Z,6.07
2023-01-31T10:42:32.571Z,5.70
2023-01-31T10:45:02.307Z,5.37
2023-01-31T10:47:32.128Z,5.30
2023-01-31T10:49:59.304Z,4.73
2023-01-31T10:52:41.347Z,4.70
2023-01-31T10:55:18.490Z,5.30
2023-01-31T10:57:45.776Z,5.70
2023-01-31T11:00:14.763Z,7.60
2023-01-31T11:02:41.913Z,5.30
2023-01-31T11:05:16.219Z,4.77
2023-01-31T11:07:43.483Z,5.53
2023-01-31T11:10:22.805Z,6.07
2023-01-31T11:12:53.493Z,6.43
2023-01-31T11:15:21.227Z,7.33
2023-01-31T11:17:48.870Z,5.60
2023-01-31T11:20:24.664Z,5.07
2023-01-31T11:22:52.571Z,5.97
2023-01-31T11:25:20.581Z,5.90
2023-01-31T11:27:49.705Z,6.53
2023-01-31T11:30:23.277Z,5.40
2023-01-31T11:32:50.564Z,6.80
2023-01-31T11:35:25.091Z,6.33
2023-01-31T11:37:54.416Z,6.60
2023-01-31T11:40:22.851Z,6.47
2023-01-31T11:42:55.054Z,7.70
2023-01-31T11:45:23.743Z,8.07
2023-01-31T11:47:51.859Z,6.87
2023-01-31T11:50:22.675Z,6.50
2023-01-31T11:52:55.153Z,9.37
2023-01-31T11:55:22.278Z,8.73
2023-01-31T11:57:55.208Z,8.53
2023-01-31T12:00:24.739Z,7.07
2023-01-31T12:02:53.994Z,6.73
2023-01-31T12:05:21.322Z,6.83
2023-01-31T12:07:49.979Z,7.47
2023-01-31T12:10:28.324Z,8.17
2023-01-31T12:13:08.830Z,6.73
2023-01-31T12:15:51.710Z,6.30
2023-01-31T12:18:21.922Z,6.00
2023-01-31T12:20:54.638Z,7.10
2023-01-31T12:23:27.715Z,7.07
2023-01-31T12:26:01.884Z,6.13
2023-01-31T12:28:33.733Z,6.13
2023-01-31T12:31:17.316Z,7.50
2023-01-31T12:33:53.828Z,7.00
2023-01-31T12:36:31.774Z,7.07
2023-01-31T12:39:03.461Z,7.60
2023-01-31T12:41:32.838Z,5.90
2023-01-31T12:44:20.617Z,6.53
2023-01-31T12:47:09.991Z,7.80
2023-01-31T12:49:48.049Z,6.90
2023-01-31T12:52:19.474Z,7.17
2023-01-31T12:54:58.465Z,6.63
2023-01-31T12:57:32.148Z,6.33
2023-01-31T13:00:04.595Z,8.73
2023-01-31T13:02:39.233Z,6.30
2023-01-31T13:05:11.423Z,7.57
2023-01-31T13:07:40.914Z,8.37
2023-01-31T13:10:11.750Z,7.90
2023-01-31T13:12:39.033Z,7.40
2023-01-31T13:15:07.778Z,7.10
2023-01-31T13:17:39.212Z,9.23
2023-01-31T13:20:23.809Z,7.67
2023-01-31T13:22:53.830Z,7.37
2023-01-31T13:25:22.902Z,7.20
2023-01-31T13:27:56.450Z,10.23
2023-01-31T13:30:37.430Z,7.40
2023-01-31T13:33:15.574Z,6.93
2023-01-31T13:35:44.611Z,10.30
2023-01-31T13:38:14.328Z,8.40
2023-01-31T13:40:45.722Z,7.50
2023-01-31T13:43:14.538Z,9.30
2023-01-31T13:45:44.062Z,9.60
2023-01-31T13:48:20.971Z,9.43
